createdAt,value
2022-11-24T00:02:37.430Z,73.38
2022-11-24T00:05:41.330Z,71.97
2022-11-24T00:08:45.361Z,75.74
2022-11-24T00:11:49.224Z,75.14
2022-11-24T00:14:53.220Z,74.66
2022-11-24T00:17:56.867Z,73.94
2022-11-24T00:21:00.975Z,74.43
2022-11-24T00:24:05.144Z,74.57
2022-11-24T00:27:09.554Z,73.95
2022-11-24T00:30:13.561Z,74.37
2022-11-24T00:33:17.578Z,72.93
2022-11-24T00:36:21.780Z,72.69
2022-11-24T00:39:26.027Z,71.96
2022-11-24T00:42:30.093Z,73.40
2022-11-24T00:45:34.098Z,73.45
2022-11-24T00:48:41.071Z,73.48
2022-11-24T00:51:45.161Z,73.90
2022-11-24T00:54:49.817Z,72.70
2022-11-24T00:57:53.764Z,74.37
2022-11-24T01:00:58.815Z,72.18
2022-11-24T01:04:02.675Z,72.76
2022-11-24T01:07:09.253Z,72.64
2022-11-24T01:10:13.538Z,72.27
2022-11-24T01:13:17.560Z,71.90
2022-11-24T01:16:21.933Z,72.07
2022-11-24T01:19:25.928Z,71.63
2022-11-24T01:22:29.980Z,71.72
2022-11-24T01:25:34.013Z,72.61
2022-11-24T01:28:41.855Z,71.38
2022-11-24T01:31:48.972Z,71.83
2022-11-24T01:34:53.163Z,71.65
2022-11-24T01:37:57.254Z,72.55
2022-11-24T01:41:01.086Z,72.12
2022-11-24T01:44:05.041Z,71.92
2022-11-24T01:47:09.303Z,72.11
2022-11-24T01:50:13.792Z,71.40
2022-11-24T01:53:17.366Z,71.35
2022-11-24T01:56:21.746Z,71.35
2022-11-24T01:59:25.475Z,72.57
2022-11-24T02:02:29.914Z,71.56
2022-11-24T02:05:33.815Z,70.82
2022-11-24T02:08:37.486Z,71.27
2022-11-24T02:11:41.645Z,70.75
2022-11-24T02:14:47.329Z,70.86
2022-11-24T02:17:51.789Z,71.38
2022-11-24T02:20:55.763Z,72.15
2022-11-24T02:23:59.438Z,70.95
2022-11-24T02:27:03.272Z,71.20
2022-11-24T02:30:07.720Z,70.56
2022-11-24T02:33:11.718Z,70.12
2022-11-24T02:36:15.796Z,69.85
2022-11-24T02:39:19.755Z,70.12
2022-11-24T02:42:23.579Z,70.42
2022-11-24T02:45:27.589Z,70.05
2022-11-24T02:48:31.647Z,70.18
2022-11-24T02:51:35.857Z,70.49
2022-11-24T02:54:39.543Z,70.77
2022-11-24T02:57:44.047Z,70.44
2022-11-24T03:00:48.103Z,70.57
2022-11-24T03:03:51.937Z,69.31
2022-11-24T03:06:55.716Z,70.57
2022-11-24T03:09:59.634Z,70.47
2022-11-24T03:13:03.700Z,70.90
2022-11-24T03:16:07.715Z,70.04
2022-11-24T03:19:11.612Z,70.92
2022-11-24T03:22:15.686Z,70.75
2022-11-24T03:25:19.859Z,69.84
2022-11-24T03:28:24.140Z,69.37
2022-11-24T03:31:28.122Z,69.73
2022-11-24T03:34:31.859Z,69.67
2022-11-24T03:37:36.028Z,69.23
2022-11-24T03:40:41.965Z,69.73
2022-11-24T03:43:46.002Z,69.08
2022-11-24T03:46:49.804Z,70.18
2022-11-24T03:49:53.867Z,69.36
2022-11-24T03:52:57.917Z,68.77
2022-11-24T03:56:01.764Z,69.26
2022-11-24T03:59:05.546Z,68.90
2022-11-24T04:02:09.543Z,69.94
2022-11-24T04:05:13.333Z,69.73
2022-11-24T04:08:17.239Z,69.98
2022-11-24T04:11:21.456Z,69.18
2022-11-24T04:14:25.772Z,69.62
2022-11-24T04:17:29.955Z,69.94
2022-11-24T04:20:33.740Z,69.55
2022-11-24T04:23:37.939Z,70.03
2022-11-24T04:26:41.710Z,70.69
2022-11-24T04:29:45.789Z,71.01
2022-11-24T04:32:49.890Z,72.25
2022-11-24T04:35:55.619Z,71.58
2022-11-24T04:39:24.034Z,71.95
2022-11-24T04:42:23.977Z,72.69
2022-11-24T04:45:28.123Z,71.35
2022-11-24T04:48:31.755Z,72.14
2022-11-24T04:51:35.758Z,71.00
2022-11-24T04:54:39.969Z,70.67
2022-11-24T04:57:45.162Z,72.59
2022-11-24T05:00:51.229Z,72.05
2022-11-24T05:04:00.211Z,71.38
2022-11-24T05:07:04.445Z,71.89
2022-11-24T05:10:08.252Z,70.74
2022-11-24T05:13:12.820Z,71.99
2022-11-24T05:16:21.494Z,70.73
2022-11-24T05:19:32.246Z,71.23
2022-11-24T05:22:36.167Z,71.46
2022-11-24T05:25:44.868Z,69.57
2022-11-24T05:28:51.459Z,70.10
2022-11-24T05:31:55.648Z,70.23
2022-11-24T05:34:59.716Z,71.31
2022-11-24T05:38:03.747Z,70.55
2022-11-24T05:41:07.704Z,71.47
2022-11-24T05:44:11.561Z,72.44
2022-11-24T05:47:15.478Z,71.48
2022-11-24T05:50:19.446Z,70.85
2022-11-24T05:53:23.347Z,69.44
2022-11-24T05:56:27.194Z,69.25
2022-11-24T05:59:30.788Z,69.99
2022-11-24T06:02:35.223Z,69.25
2022-11-24T06:05:39.375Z,69.31
2022-11-24T06:08:43.347Z,69.37
2022-11-24T06:11:49.442Z,69.61
2022-11-24T06:14:55.565Z,70.60
2022-11-24T06:17:59.812Z,70.76
2022-11-24T06:21:11.541Z,70.44
2022-11-24T06:24:30.320Z,69.51
2022-11-24T06:27:34.461Z,71.01
2022-11-24T06:30:38.473Z,70.07
2022-11-24T06:33:42.282Z,69.89
2022-11-24T06:36:46.071Z,69.57
2022-11-24T06:39:49.881Z,69.31
2022-11-24T06:42:53.971Z,69.25
2022-11-24T06:45:59.214Z,68.42
2022-11-24T06:49:03.098Z,68.48
2022-11-24T06:52:07.019Z,69.72
2022-11-24T06:55:11.343Z,69.16
2022-11-24T06:58:18.394Z,69.88
2022-11-24T07:01:22.605Z,70.51
2022-11-24T07:04:26.275Z,70.09
2022-11-24T07:07:30.333Z,69.16
2022-11-24T07:10:34.286Z,68.49
2022-11-24T07:13:38.577Z,68.00
2022-11-24T07:16:42.548Z,69.27
2022-11-24T07:19:46.340Z,68.68
2022-11-24T07:22:50.484Z,68.61
2022-11-24T07:25:54.902Z,67.87
2022-11-24T07:28:59.007Z,68.16
2022-11-24T07:32:05.639Z,67.45
2022-11-24T07:35:09.888Z,66.02
2022-11-24T07:38:14.045Z,67.41
2022-11-24T07:41:18.208Z,69.50
2022-11-24T07:44:22.364Z,68.04
2022-11-24T07:47:26.233Z,67.89
2022-11-24T07:50:30.356Z,68.82
2022-11-24T07:53:34.108Z,67.79
2022-11-24T07:56:38.407Z,68.28
2022-11-24T07:59:42.575Z,67.16
2022-11-24T08:02:46.741Z,67.94
2022-11-24T08:06:16.099Z,69.10
2022-11-24T08:09:14.748Z,68.52
2022-11-24T08:12:18.897Z,68.92
2022-11-24T08:15:22.960Z,69.30
2022-11-24T08:18:27.164Z,69.40
2022-11-24T08:21:30.652Z,69.04
2022-11-24T08:24:34.993Z,67.01
2022-11-24T08:27:39.035Z,68.01
2022-11-24T08:30:43.067Z,67.70
2022-11-24T08:33:47.146Z,67.98
2022-11-24T08:36:50.835Z,67.02
2022-11-24T08:39:54.624Z,67.02
2022-11-24T08:42:58.880Z,67.74
2022-11-24T08:46:02.828Z,67.01
2022-11-24T08:49:06.672Z,66.19
2022-11-24T08:52:10.616Z,66.49
2022-11-24T08:55:14.687Z,67.28
2022-11-24T08:58:18.680Z,66.73
2022-11-24T09:01:22.883Z,67.76
2022-11-24T09:04:27.010Z,65.54
2022-11-24T09:07:32.102Z,63.77
2022-11-24T09:10:36.064Z,63.48
2022-11-24T09:13:40.407Z,62.90
2022-11-24T09:16:44.408Z,62.96
2022-11-24T09:19:48.294Z,62.41
2022-11-24T09:22:52.563Z,62.75
2022-11-24T09:25:56.643Z,62.02
2022-11-24T09:29:00.937Z,62.67
2022-11-24T09:32:06.963Z,62.77
2022-11-24T09:35:11.237Z,62.57
2022-11-24T09:38:15.439Z,62.26
2022-11-24T09:41:19.605Z,63.91
2022-11-24T09:44:23.824Z,63.01
2022-11-24T09:47:27.843Z,63.55
2022-11-24T09:50:32.169Z,62.92
2022-11-24T09:53:36.111Z,61.41
2022-11-24T09:56:40.090Z,61.38
2022-11-24T09:59:44.382Z,60.14
2022-11-24T10:02:48.269Z,61.44
2022-11-24T10:05:52.227Z,60.46
2022-11-24T10:08:56.479Z,61.26
2022-11-24T10:12:00.592Z,60.75
2022-11-24T10:15:04.916Z,58.92
2022-11-24T10:18:14.944Z,57.20
2022-11-24T10:21:20.322Z,58.52
2022-11-24T10:24:24.190Z,57.87
2022-11-24T10:27:28.359Z,58.33
2022-11-24T10:30:32.325Z,58.54
2022-11-24T10:33:38.777Z,59.43
2022-11-24T10:36:42.695Z,58.70
2022-11-24T10:39:46.613Z,59.03
2022-11-24T10:42:50.663Z,58.67
2022-11-24T10:45:54.918Z,58.33
2022-11-24T10:52:52.653Z,56.64
2022-11-24T10:56:15.237Z,56.11
2022-11-24T10:59:18.951Z,56.72
2022-11-24T11:02:23.034Z,57.09
2022-11-24T11:05:26.818Z,58.31
2022-11-24T11:08:31.023Z,56.93
2022-11-24T11:11:35.064Z,57.25
2022-11-24T11:14:38.876Z,58.30
2022-11-24T11:17:43.794Z,59.35
2022-11-24T11:20:48.006Z,57.34
2022-11-24T11:23:51.787Z,58.26
2022-11-24T11:26:55.836Z,57.98
2022-11-24T11:36:46.956Z,57.69
2022-11-24T11:39:51.126Z,58.57
2022-11-24T11:46:17.591Z,59.53
2022-11-24T11:49:21.353Z,59.66
2022-11-24T11:52:25.186Z,60.76
2022-11-24T11:55:29.106Z,58.73
2022-11-24T11:58:33.251Z,57.87
2022-11-24T12:01:37.208Z,56.90
2022-11-24T12:04:40.897Z,56.33
2022-11-24T12:07:46.531Z,55.06
2022-11-24T12:10:50.635Z,55.59
2022-11-24T12:13:54.781Z,55.39
2022-11-24T12:16:58.756Z,56.01
2022-11-24T12:20:02.723Z,52.78
2022-11-24T12:23:06.694Z,52.57
2022-11-24T12:26:10.766Z,52.79
2022-11-24T12:29:14.790Z,52.73
2022-11-24T12:32:20.730Z,51.35
2022-11-24T12:35:24.609Z,52.21
2022-11-24T12:38:30.616Z,52.18
2022-11-24T12:41:42.184Z,52.06
2022-11-24T12:44:47.775Z,52.75
2022-11-24T12:47:57.801Z,53.16
2022-11-24T12:52:37.473Z,52.84
2022-11-24T12:54:26.629Z,52.08
2022-11-24T13:00:58.940Z,52.98
2022-11-24T13:04:12.521Z,54.48
2022-11-24T13:07:21.267Z,52.12
2022-11-24T13:10:53.574Z,52.36
2022-11-24T13:13:49.957Z,52.27
2022-11-24T13:17:21.748Z,50.94
2022-11-24T13:20:18.195Z,51.39
2022-11-24T13:23:22.319Z,52.01
2022-11-24T13:26:26.065Z,52.78
2022-11-24T13:29:30.195Z,53.07
2022-11-24T13:32:33.952Z,54.47
2022-11-24T13:35:37.853Z,54.98
2022-11-24T13:38:41.678Z,54.45
2022-11-24T13:41:45.845Z,54.77
2022-11-24T13:44:49.871Z,54.12
2022-11-24T13:47:53.907Z,52.64
2022-11-24T13:50:57.940Z,52.74
2022-11-24T13:54:01.882Z,53.64
2022-11-24T13:57:08.271Z,52.84
2022-11-24T14:00:12.447Z,52.74
2022-11-24T14:03:16.435Z,52.45
2022-11-24T14:06:20.439Z,52.61
2022-11-24T14:09:24.433Z,53.91
2022-11-24T14:12:28.553Z,54.65
2022-11-24T14:15:32.402Z,55.00
2022-11-24T14:18:36.251Z,54.81
2022-11-24T14:21:40.088Z,54.75
2022-11-24T14:24:44.513Z,55.34
2022-11-24T14:27:48.449Z,55.32
2022-11-24T14:30:53.348Z,55.78
2022-11-24T14:33:57.273Z,56.97
2022-11-24T14:37:01.284Z,56.27
2022-11-24T14:40:05.327Z,56.50
2022-11-24T14:43:09.559Z,58.13
2022-11-24T14:46:18.130Z,57.41
2022-11-24T14:49:22.251Z,56.89
2022-11-24T14:52:26.458Z,55.90
2022-11-24T14:55:30.371Z,57.27
2022-11-24T14:58:38.941Z,57.89
2022-11-24T15:01:45.680Z,58.04
2022-11-24T15:05:02.569Z,57.96
2022-11-24T15:08:07.489Z,58.49
2022-11-24T15:11:11.563Z,59.38
2022-11-24T15:14:17.814Z,59.14
2022-11-24T15:17:21.733Z,60.00
2022-11-24T15:20:25.842Z,60.40
2022-11-24T15:23:29.880Z,60.90
2022-11-24T15:26:38.484Z,61.14
2022-11-24T15:29:49.689Z,60.72
2022-11-24T15:32:56.483Z,61.00
2022-11-24T15:36:00.435Z,61.96
2022-11-24T15:39:04.498Z,61.34
2022-11-24T15:42:08.424Z,61.97
2022-11-24T15:45:12.293Z,62.41
2022-11-24T15:48:18.133Z,62.24
2022-11-24T15:51:25.794Z,62.52
2022-11-24T15:54:29.951Z,62.60
2022-11-24T15:57:35.425Z,62.91
2022-11-24T16:00:39.756Z,63.25
2022-11-24T16:03:48.364Z,63.33
2022-11-24T16:06:53.173Z,63.34
2022-11-24T16:10:01.092Z,63.44
2022-11-24T16:13:05.283Z,63.71
2022-11-24T16:16:09.215Z,62.84
2022-11-24T16:19:13.282Z,63.61
2022-11-24T16:23:04.359Z,63.33
2022-11-24T16:25:44.011Z,63.54
2022-11-24T16:28:49.267Z,63.19
2022-11-24T16:31:53.598Z,63.74
2022-11-24T16:35:02.342Z,62.62
2022-11-24T16:38:07.868Z,62.66
2022-11-24T16:41:14.147Z,62.63
2022-11-24T16:44:28.511Z,62.02
2022-11-24T16:47:32.578Z,61.99
2022-11-24T16:50:36.623Z,61.67
2022-11-24T16:53:40.688Z,61.05
2022-11-24T16:56:44.778Z,61.21
2022-11-24T16:59:49.040Z,60.37
2022-11-24T17:02:53.123Z,60.84
2022-11-24T17:05:57.177Z,60.24
2022-11-24T17:09:01.000Z,60.33
2022-11-24T17:12:05.124Z,59.79
2022-11-24T17:15:31.927Z,60.08
2022-11-24T17:18:33.475Z,61.23
2022-11-24T17:21:37.589Z,61.22
2022-11-24T17:24:42.795Z,60.65
2022-11-24T17:27:48.230Z,60.14
2022-11-24T17:30:52.460Z,61.30
2022-11-24T17:33:56.571Z,62.91
2022-11-24T17:37:00.522Z,62.86
2022-11-24T17:40:27.505Z,63.64
2022-11-24T17:43:29.522Z,64.26
2022-11-24T17:46:33.683Z,64.10
2022-11-24T17:49:39.254Z,64.60
2022-11-24T17:52:43.181Z,64.19
2022-11-24T17:55:47.512Z,65.15
2022-11-24T17:58:51.842Z,64.95
2022-11-24T18:01:55.731Z,65.02
2022-11-24T18:04:59.674Z,65.16
2022-11-24T18:08:03.867Z,64.78
2022-11-24T18:11:07.824Z,64.42
2022-11-24T18:14:11.484Z,65.02
2022-11-24T18:17:15.674Z,65.67
2022-11-24T18:20:19.524Z,67.39
2022-11-24T18:23:25.558Z,66.14
2022-11-24T18:26:29.755Z,63.54
2022-11-24T18:29:33.661Z,65.29
2022-11-24T18:32:39.814Z,63.82
2022-11-24T18:35:43.985Z,63.47
2022-11-24T18:38:48.150Z,64.01
2022-11-24T18:41:52.233Z,64.84
2022-11-24T18:44:56.129Z,63.59
2022-11-24T18:48:00.254Z,64.30
2022-11-24T18:51:04.319Z,63.81
2022-11-24T18:54:10.901Z,63.91
2022-11-24T18:57:15.239Z,64.46
2022-11-24T19:00:19.783Z,64.68
2022-11-24T19:03:30.362Z,62.89
2022-11-24T19:06:34.462Z,61.95
2022-11-24T19:09:39.529Z,61.89
2022-11-24T19:12:44.993Z,61.26
2022-11-24T19:15:59.424Z,59.66
2022-11-24T19:19:03.688Z,58.08
2022-11-24T19:22:07.548Z,57.11
2022-11-24T19:25:11.487Z,57.70
2022-11-24T19:28:15.856Z,57.12
2022-11-24T19:31:21.401Z,57.25
2022-11-24T19:34:25.445Z,58.63
2022-11-24T19:37:31.057Z,59.01
2022-11-24T19:40:38.748Z,60.37
2022-11-24T19:43:43.029Z,59.53
2022-11-24T19:46:53.296Z,60.95
2022-11-24T19:49:58.660Z,58.83
2022-11-24T19:53:03.037Z,58.25
2022-11-24T19:56:07.980Z,59.62
2022-11-24T20:02:44.130Z,60.53
2022-11-24T20:06:10.629Z,60.02
2022-11-24T20:09:15.070Z,59.09
2022-11-24T20:12:42.394Z,58.72
2022-11-24T20:15:54.667Z,59.21
2022-11-24T20:19:47.998Z,58.11
2022-11-24T20:24:02.985Z,58.55
2022-11-24T20:25:51.593Z,57.27
2022-11-24T20:29:04.879Z,57.49
2022-11-24T20:32:11.193Z,58.83
2022-11-24T20:35:25.233Z,57.69
2022-11-24T20:42:11.722Z,56.38
2022-11-24T20:45:14.058Z,56.40
2022-11-24T20:48:33.269Z,56.49
2022-11-24T20:54:58.487Z,57.24
2022-11-24T21:01:28.432Z,57.45
2022-11-24T21:04:39.902Z,59.41
2022-11-24T21:08:07.720Z,57.96
2022-11-24T21:11:11.300Z,61.22
2022-11-24T21:14:35.132Z,57.70
2022-11-24T21:19:15.458Z,59.09
2022-11-24T21:21:13.103Z,58.05
2022-11-24T21:26:03.464Z,58.91
2022-11-24T21:28:47.341Z,57.78
2022-11-24T21:31:14.418Z,57.79
2022-11-24T21:34:44.213Z,56.53
2022-11-24T21:37:49.187Z,57.75
2022-11-24T21:41:40.225Z,59.09
2022-11-24T21:44:18.999Z,58.82
2022-11-24T21:47:45.921Z,58.29
2022-11-24T21:51:09.105Z,60.00
2022-11-24T21:54:15.414Z,59.39
2022-11-24T22:00:54.597Z,61.04
2022-11-24T22:03:58.931Z,61.64
2022-11-24T22:07:04.086Z,61.30
2022-11-24T22:10:09.261Z,62.08
2022-11-24T22:13:13.259Z,61.75
2022-11-24T22:16:18.389Z,60.64
2022-11-24T22:19:25.519Z,62.66
2022-11-24T22:22:29.635Z,62.88
2022-11-24T22:25:35.165Z,62.53
2022-11-24T22:28:39.358Z,63.22
2022-11-24T22:31:44.863Z,62.55
2022-11-24T22:34:48.646Z,63.71
2022-11-24T22:37:52.733Z,64.37
2022-11-24T22:40:57.069Z,64.98
2022-11-24T22:44:01.341Z,64.24
2022-11-24T22:47:05.694Z,64.12
2022-11-24T22:50:10.843Z,63.28
2022-11-24T22:53:16.409Z,65.04
2022-11-24T22:56:20.741Z,65.19
2022-11-24T22:59:24.667Z,64.69
2022-11-24T23:02:28.599Z,64.16
2022-11-24T23:05:32.590Z,63.59
2022-11-24T23:08:36.407Z,63.44
2022-11-24T23:11:40.493Z,63.71
2022-11-24T23:14:44.423Z,62.99
2022-11-24T23:17:48.271Z,62.51
2022-11-24T23:20:52.400Z,62.74
2022-11-24T23:23:56.451Z,62.35
2022-11-24T23:27:00.403Z,62.28
2022-11-24T23:30:04.483Z,63.79
2022-11-24T23:33:08.386Z,64.69
2022-11-24T23:36:12.434Z,65.08
2022-11-24T23:39:16.794Z,64.36
2022-11-24T23:42:20.842Z,64.28
2022-11-24T23:45:24.899Z,64.41
2022-11-24T23:48:28.753Z,64.35
2022-11-24T23:51:32.817Z,64.14
2022-11-24T23:54:38.011Z,64.82
2022-11-24T23:57:42.212Z,64.88
